Time;durP1;ratioP1;P1;durP2;ratioP2;P2;SDS_P1;SDS_P2;PMS_P1;PMS_P2;Temp;Humidity;BMP_temperature;BMP_pressure;BME280_temperature;BME280_humidity;BME280_pressure;Samples;Min_cycle;Max_cycle;Signal;HPM_P1;HPM_P2
2023/05/16 00:00:24;;;;;;;;;;;14.60;75.30;;;;;;5030416;27;87325;-41
2023/05/16 00:02:50;;;;;;;;;;;14.60;75.20;;;;;;5034440;28;88023;-42
2023/05/16 00:05:15;;;;;;;;;;;14.60;75.20;;;;;;5035660;28;87156;-41
2023/05/16 00:07:42;;;;;;;;;;;14.60;75.10;;;;;;5034826;28;88927;-41
2023/05/16 00:10:07;;;;;;;;;;;14.60;75.30;;;;;;5033563;28;87698;-42
2023/05/16 00:12:35;;;;;;;;;;;14.60;75.10;;;;;;5035512;28;87699;-41
2023/05/16 00:15:01;;;;;;;;;;;14.60;75.10;;;;;;5033453;28;89221;-41
2023/05/16 00:17:27;;;;;;;;;;;14.60;75.00;;;;;;5035117;28;86862;-41
2023/05/16 00:19:57;;;;;;;;;;;14.60;75.10;;;;;;5033909;27;89005;-41
2023/05/16 00:22:26;;;;;;;;;;;14.60;75.10;;;;;;5034668;28;89898;-41
2023/05/16 00:24:51;;;;;;;;;;;14.60;75.10;;;;;;5033760;28;86327;-41
2023/05/16 00:27:17;;;;;;;;;;;14.60;75.10;;;;;;5037928;28;86997;-42
2023/05/16 00:29:42;;;;;;;;;;;14.60;75.10;;;;;;5032310;28;87191;-42
2023/05/16 00:32:08;;;;;;;;;;;14.50;75.20;;;;;;5034110;28;88050;-42
2023/05/16 00:34:34;;;;;;;;;;;14.60;75.10;;;;;;5033461;28;89330;-41
2023/05/16 00:37:00;;;;;;;;;;;14.50;75.20;;;;;;5034150;28;87323;-41
2023/05/16 00:39:25;;;;;;;;;;;14.50;75.10;;;;;;5034399;27;88792;-40
2023/05/16 00:41:51;;;;;;;;;;;14.60;75.00;;;;;;5033381;28;87997;-41
2023/05/16 00:44:16;;;;;;;;;;;14.50;75.00;;;;;;5033459;28;87239;-42
2023/05/16 00:46:42;;;;;;;;;;;14.50;75.10;;;;;;5033198;28;87147;-41
2023/05/16 00:49:08;;;;;;;;;;;14.50;74.90;;;;;;5038270;28;87530;-42
2023/05/16 00:51:34;;;;;;;;;;;14.50;75.00;;;;;;5032442;28;87121;-42
2023/05/16 00:54:00;;;;;;;;;;;14.50;75.10;;;;;;5035408;28;88029;-42
2023/05/16 00:56:25;;;;;;;;;;;14.50;74.90;;;;;;5031613;28;88094;-42
2023/05/16 00:58:51;;;;;;;;;;;14.50;74.90;;;;;;5027904;28;88256;-42
2023/05/16 01:01:17;;;;;;;;;;;14.50;74.90;;;;;;5034818;28;88013;-41
2023/05/16 01:03:44;;;;;;;;;;;14.50;74.80;;;;;;5031551;28;87210;-42
2023/05/16 01:06:11;;;;;;;;;;;14.50;74.90;;;;;;5035317;28;88791;-41
2023/05/16 01:08:36;;;;;;;;;;;14.50;75.00;;;;;;5034886;28;87943;-41
2023/05/16 01:11:07;;;;;;;;;;;14.50;74.90;;;;;;5034750;28;87481;-42
2023/05/16 01:13:45;;;;;;;;;;;14.50;74.90;;;;;;5031125;27;87139;-40
2023/05/16 01:16:10;;;;;;;;;;;14.50;74.90;;;;;;5029537;28;87055;-41
2023/05/16 01:18:41;;;;;;;;;;;14.50;74.90;;;;;;5034933;28;87075;-41
2023/05/16 01:21:12;;;;;;;;;;;14.50;74.80;;;;;;5031543;28;90563;-42
2023/05/16 01:23:37;;;;;;;;;;;14.50;74.80;;;;;;5033442;28;87458;-41
2023/05/16 01:26:11;;;;;;;;;;;14.50;74.90;;;;;;5033132;28;87028;-42
2023/05/16 01:28:37;;;;;;;;;;;14.40;74.80;;;;;;5032482;28;89495;-42
2023/05/16 01:31:03;;;;;;;;;;;14.40;74.80;;;;;;5036676;28;87119;-41
2023/05/16 01:33:28;;;;;;;;;;;14.50;74.90;;;;;;5032967;28;89575;-42
2023/05/16 01:35:54;;;;;;;;;;;14.40;74.70;;;;;;5033085;28;86954;-41
2023/05/16 01:38:29;;;;;;;;;;;14.40;74.90;;;;;;5033977;28;86563;-41
2023/05/16 01:40:54;;;;;;;;;;;14.40;74.90;;;;;;5033770;28;88129;-41
2023/05/16 01:43:24;;;;;;;;;;;14.40;74.90;;;;;;5032485;28;87099;-41
2023/05/16 01:45:54;;;;;;;;;;;14.40;74.90;;;;;;5033226;28;88059;-41
2023/05/16 01:48:26;;;;;;;;;;;14.40;74.80;;;;;;5031556;28;89324;-40
2023/05/16 01:50:53;;;;;;;;;;;14.40;74.80;;;;;;5034590;28;87157;-41
2023/05/16 01:53:32;;;;;;;;;;;14.40;74.70;;;;;;5033521;28;87396;-42
2023/05/16 01:55:59;;;;;;;;;;;14.40;74.80;;;;;;5029326;28;87079;-41
2023/05/16 01:58:26;;;;;;;;;;;14.40;74.60;;;;;;5033683;27;87346;-42
2023/05/16 02:00:52;;;;;;;;;;;14.40;74.70;;;;;;5031124;28;87964;-42
2023/05/16 02:03:18;;;;;;;;;;;14.40;74.90;;;;;;5033970;28;86693;-41
2023/05/16 02:05:43;;;;;;;;;;;14.40;74.80;;;;;;5030716;28;87260;-42
2023/05/16 02:08:09;;;;;;;;;;;14.40;74.70;;;;;;5033290;28;88102;-41
2023/05/16 02:10:35;;;;;;;;;;;14.40;74.70;;;;;;5029634;28;88062;-42
2023/05/16 02:13:00;;;;;;;;;;;14.40;74.80;;;;;;5034513;28;88412;-41
2023/05/16 02:15:26;;;;;;;;;;;14.30;74.80;;;;;;5028996;28;87975;-42
2023/05/16 02:17:51;;;;;;;;;;;14.30;74.70;;;;;;5034152;28;87354;-41
2023/05/16 02:20:17;;;;;;;;;;;14.30;74.80;;;;;;5030595;28;88027;-41
2023/05/16 02:22:43;;;;;;;;;;;14.30;74.80;;;;;;5033709;28;88116;-41
2023/05/16 02:25:08;;;;;;;;;;;14.30;74.80;;;;;;5031352;27;87398;-41
2023/05/16 02:27:34;;;;;;;;;;;14.30;74.80;;;;;;5033605;28;86807;-41
2023/05/16 02:30:00;;;;;;;;;;;14.30;74.70;;;;;;5031731;28;87561;-41
2023/05/16 02:32:26;;;;;;;;;;;14.30;74.70;;;;;;5033008;28;87744;-41
2023/05/16 02:34:52;;;;;;;;;;;14.30;74.70;;;;;;5030682;28;90561;-41
2023/05/16 02:37:17;;;;;;;;;;;14.30;74.80;;;;;;5034963;28;87131;-41
2023/05/16 02:39:43;;;;;;;;;;;14.30;74.90;;;;;;5031982;28;88024;-41
2023/05/16 02:42:08;;;;;;;;;;;14.30;74.80;;;;;;5031919;28;87677;-41
2023/05/16 02:44:34;;;;;;;;;;;14.30;74.80;;;;;;5033099;28;87533;-42
2023/05/16 02:47:00;;;;;;;;;;;14.30;74.80;;;;;;5030743;28;89637;-41
2023/05/16 02:49:25;;;;;;;;;;;14.30;74.80;;;;;;5033301;28;87062;-41
2023/05/16 02:51:51;;;;;;;;;;;14.30;74.80;;;;;;5031019;28;87681;-41
2023/05/16 02:54:16;;;;;;;;;;;14.30;74.80;;;;;;5033672;28;88009;-41
2023/05/16 02:56:43;;;;;;;;;;;14.30;74.80;;;;;;5030139;28;87138;-41
2023/05/16 02:59:10;;;;;;;;;;;14.20;74.70;;;;;;5035692;28;88006;-41
2023/05/16 03:01:35;;;;;;;;;;;14.20;74.70;;;;;;5026300;28;86871;-41
2023/05/16 03:04:01;;;;;;;;;;;14.30;74.70;;;;;;5032849;28;87170;-41
2023/05/16 03:06:26;;;;;;;;;;;14.20;74.70;;;;;;5030122;28;87203;-42
2023/05/16 03:08:52;;;;;;;;;;;14.20;74.70;;;;;;5033487;28;87301;-40
2023/05/16 03:11:21;;;;;;;;;;;14.20;74.60;;;;;;5030978;28;87471;-42
2023/05/16 03:13:46;;;;;;;;;;;14.20;74.60;;;;;;5032647;28;89679;-42
2023/05/16 03:16:12;;;;;;;;;;;14.30;74.60;;;;;;5031356;28;86722;-41
2023/05/16 03:18:37;;;;;;;;;;;14.20;74.60;;;;;;5035042;28;87011;-41
2023/05/16 03:21:03;;;;;;;;;;;14.20;74.60;;;;;;5031475;28;87165;-41
2023/05/16 03:23:29;;;;;;;;;;;14.20;74.60;;;;;;5033544;28;88150;-41
2023/05/16 03:25:55;;;;;;;;;;;14.20;74.60;;;;;;5031007;28;89336;-41
2023/05/16 03:28:20;;;;;;;;;;;14.20;74.60;;;;;;5031735;28;87004;-41
2023/05/16 03:30:46;;;;;;;;;;;14.30;74.60;;;;;;5031526;28;87396;-41
2023/05/16 03:33:11;;;;;;;;;;;14.20;74.50;;;;;;5032068;28;88165;-41
2023/05/16 03:35:37;;;;;;;;;;;14.20;74.50;;;;;;5030845;28;87409;-42
2023/05/16 03:38:02;;;;;;;;;;;14.20;74.60;;;;;;5035185;27;87233;-41
2023/05/16 03:40:28;;;;;;;;;;;14.20;74.70;;;;;;5036382;28;87334;-42
2023/05/16 03:42:54;;;;;;;;;;;14.20;74.60;;;;;;5036525;28;88293;-42
2023/05/16 03:45:19;;;;;;;;;;;14.20;74.70;;;;;;5032858;28;88184;-42
2023/05/16 03:47:45;;;;;;;;;;;14.20;74.70;;;;;;5036412;28;88047;-41
2023/05/16 03:50:10;;;;;;;;;;;14.20;74.70;;;;;;5032832;28;90494;-41
2023/05/16 03:52:36;;;;;;;;;;;14.20;74.60;;;;;;5036474;28;87097;-41
2023/05/16 03:55:03;;;;;;;;;;;14.20;74.50;;;;;;5033386;28;87212;-41
2023/05/16 03:57:30;;;;;;;;;;;14.20;74.50;;;;;;5035403;28;88763;-41
2023/05/16 03:59:55;;;;;;;;;;;14.20;74.50;;;;;;5032932;28;87230;-42
2023/05/16 04:02:21;;;;;;;;;;;14.20;74.60;;;;;;5038599;28;87080;-42
2023/05/16 04:04:46;;;;;;;;;;;14.20;74.60;;;;;;5033259;28;87243;-41
2023/05/16 04:07:12;;;;;;;;;;;14.10;74.50;;;;;;5034917;28;87346;-42
2023/05/16 04:09:38;;;;;;;;;;;14.20;74.60;;;;;;5034249;28;87504;-41
2023/05/16 04:12:03;;;;;;;;;;;14.20;74.60;;;;;;5033634;28;89117;-41
2023/05/16 04:14:29;;;;;;;;;;;14.10;74.50;;;;;;5033800;28;87195;-41
2023/05/16 04:16:55;;;;;;;;;;;14.10;74.50;;;;;;5034327;28;87285;-41
2023/05/16 04:19:20;;;;;;;;;;;14.10;74.50;;;;;;5034768;28;87959;-41
2023/05/16 04:21:46;;;;;;;;;;;14.10;74.60;;;;;;5033573;28;87090;-41
2023/05/16 04:24:11;;;;;;;;;;;14.10;74.50;;;;;;5037930;28;87416;-42
2023/05/16 04:26:37;;;;;;;;;;;14.10;74.60;;;;;;5033221;28;87114;-41
2023/05/16 04:29:02;;;;;;;;;;;14.10;74.60;;;;;;5036318;28;87523;-42
2023/05/16 04:31:28;;;;;;;;;;;14.10;74.50;;;;;;5031993;28;87843;-41
2023/05/16 04:33:54;;;;;;;;;;;14.10;74.50;;;;;;5035739;28;87672;-41
2023/05/16 04:36:20;;;;;;;;;;;14.10;74.60;;;;;;5027928;28;87928;-41
2023/05/16 04:38:46;;;;;;;;;;;14.10;74.40;;;;;;5035527;28;88024;-41
2023/05/16 04:41:12;;;;;;;;;;;14.10;74.40;;;;;;5032176;28;87203;-41
2023/05/16 04:43:38;;;;;;;;;;;14.10;74.40;;;;;;5035107;28;87406;-41
2023/05/16 04:46:06;;;;;;;;;;;14.10;74.40;;;;;;5035526;28;87983;-41
2023/05/16 04:48:32;;;;;;;;;;;14.10;74.30;;;;;;5034386;27;87833;-42
2023/05/16 04:50:57;;;;;;;;;;;14.10;74.30;;;;;;5032365;28;88122;-42
2023/05/16 04:53:23;;;;;;;;;;;14.10;74.40;;;;;;5035164;28;86277;-42
2023/05/16 04:55:48;;;;;;;;;;;14.10;74.60;;;;;;5032785;28;87194;-42
2023/05/16 04:58:14;;;;;;;;;;;14.10;74.50;;;;;;5033999;28;88181;-42
2023/05/16 05:00:40;;;;;;;;;;;14.10;74.40;;;;;;5032611;28;88713;-42
2023/05/16 05:03:06;;;;;;;;;;;14.10;74.40;;;;;;5033414;28;89620;-41
2023/05/16 05:05:31;;;;;;;;;;;14.10;74.40;;;;;;5033492;28;88038;-41
2023/05/16 05:07:57;;;;;;;;;;;14.10;74.40;;;;;;5035966;28;87297;-41
2023/05/16 05:10:22;;;;;;;;;;;14.10;74.40;;;;;;5033891;28;88255;-41
2023/05/16 05:12:48;;;;;;;;;;;14.10;74.40;;;;;;5032646;28;87107;-41
2023/05/16 05:15:13;;;;;;;;;;;14.00;74.40;;;;;;5034940;28;87409;-41
2023/05/16 05:17:39;;;;;;;;;;;14.10;74.40;;;;;;5032058;28;87718;-41
2023/05/16 05:20:05;;;;;;;;;;;14.10;74.40;;;;;;5035008;28;87329;-41
2023/05/16 05:22:31;;;;;;;;;;;14.10;74.40;;;;;;5031658;28;88938;-41
2023/05/16 05:24:57;;;;;;;;;;;14.00;74.30;;;;;;5034355;28;88784;-41
2023/05/16 05:27:22;;;;;;;;;;;14.10;74.40;;;;;;5034303;28;87083;-42
2023/05/16 05:29:47;;;;;;;;;;;14.10;74.30;;;;;;5034724;28;88094;-42
2023/05/16 05:32:13;;;;;;;;;;;14.00;74.30;;;;;;5032074;28;87040;-41
2023/05/16 05:34:38;;;;;;;;;;;14.10;74.40;;;;;;5034393;28;87495;-41
2023/05/16 05:37:04;;;;;;;;;;;14.00;74.40;;;;;;5032350;28;88128;-41
2023/05/16 05:39:29;;;;;;;;;;;14.10;74.30;;;;;;5033185;28;87051;-42
2023/05/16 05:41:55;;;;;;;;;;;14.00;74.30;;;;;;5032729;28;88151;-41
2023/05/16 05:44:21;;;;;;;;;;;14.00;74.30;;;;;;5032294;28;87914;-41
2023/05/16 05:46:46;;;;;;;;;;;14.10;74.30;;;;;;5033042;27;86931;-40
2023/05/16 05:49:12;;;;;;;;;;;14.00;74.40;;;;;;5034713;28;88061;-41
2023/05/16 05:51:37;;;;;;;;;;;14.00;74.30;;;;;;5033644;28;87152;-41
2023/05/16 05:54:03;;;;;;;;;;;14.00;74.30;;;;;;5031956;28;87302;-41
2023/05/16 05:56:28;;;;;;;;;;;14.00;74.20;;;;;;5033765;28;88336;-41
2023/05/16 05:58:54;;;;;;;;;;;14.00;74.30;;;;;;5031152;28;87061;-42
2023/05/16 06:01:20;;;;;;;;;;;14.10;74.20;;;;;;5033934;28;88708;-41
2023/05/16 06:03:45;;;;;;;;;;;14.10;74.20;;;;;;5029954;28;88013;-41
2023/05/16 06:06:11;;;;;;;;;;;14.00;74.30;;;;;;5035018;28;86366;-41
2023/05/16 06:08:36;;;;;;;;;;;14.00;74.20;;;;;;5030662;28;87217;-41
2023/05/16 06:11:02;;;;;;;;;;;14.10;74.20;;;;;;5036723;28;88131;-42
2023/05/16 06:13:28;;;;;;;;;;;14.10;74.20;;;;;;5031015;28;88406;-41
2023/05/16 06:15:53;;;;;;;;;;;14.10;74.20;;;;;;5033513;28;87970;-42
2023/05/16 06:18:19;;;;;;;;;;;14.10;74.30;;;;;;5031945;28;87130;-42
2023/05/16 06:20:45;;;;;;;;;;;14.10;74.30;;;;;;5033064;28;89219;-41
2023/05/16 06:23:10;;;;;;;;;;;14.10;74.20;;;;;;5031825;28;88118;-41
2023/05/16 06:25:36;;;;;;;;;;;14.10;74.30;;;;;;5032763;28;87176;-41
2023/05/16 06:28:01;;;;;;;;;;;14.00;74.20;;;;;;5032405;28;87679;-41
2023/05/16 06:30:27;;;;;;;;;;;14.10;74.20;;;;;;5031877;28;87210;-42
2023/05/16 06:32:52;;;;;;;;;;;14.00;74.20;;;;;;5036291;28;87230;-42
2023/05/16 06:35:18;;;;;;;;;;;14.10;74.40;;;;;;5031442;28;88110;-42
2023/05/16 06:37:43;;;;;;;;;;;14.10;74.30;;;;;;5032981;28;88250;-41
2023/05/16 06:40:09;;;;;;;;;;;14.00;74.30;;;;;;5031219;28;87279;-41
2023/05/16 06:42:35;;;;;;;;;;;14.00;74.40;;;;;;5033298;28;87110;-41
2023/05/16 06:45:00;;;;;;;;;;;14.00;74.40;;;;;;5030536;28;87072;-42
2023/05/16 06:47:26;;;;;;;;;;;14.00;74.40;;;;;;5034092;28;87448;-41
2023/05/16 06:49:51;;;;;;;;;;;14.00;74.30;;;;;;5029623;28;88434;-41
2023/05/16 06:52:17;;;;;;;;;;;14.00;74.40;;;;;;5034040;28;87251;-42
2023/05/16 06:54:42;;;;;;;;;;;14.00;74.50;;;;;;5033920;27;87368;-41
2023/05/16 06:57:08;;;;;;;;;;;14.00;74.40;;;;;;5032804;28;87795;-41
2023/05/16 06:59:34;;;;;;;;;;;14.00;74.50;;;;;;5031151;27;87048;-41
2023/05/16 07:02:00;;;;;;;;;;;14.00;74.50;;;;;;5031338;28;90483;-41
2023/05/16 07:04:26;;;;;;;;;;;14.00;74.40;;;;;;5030648;28;87166;-41
2023/05/16 07:06:52;;;;;;;;;;;14.00;74.40;;;;;;5032253;28;88881;-41
2023/05/16 07:09:18;;;;;;;;;;;14.00;74.40;;;;;;5031394;28;88015;-42
2023/05/16 07:11:43;;;;;;;;;;;14.00;74.40;;;;;;5032179;27;87203;-41
2023/05/16 07:14:09;;;;;;;;;;;14.00;74.40;;;;;;5038153;27;87269;-41
2023/05/16 07:16:35;;;;;;;;;;;14.00;74.50;;;;;;5034604;28;87540;-41
2023/05/16 07:19:00;;;;;;;;;;;14.00;74.40;;;;;;5036563;27;88473;-41
2023/05/16 07:21:26;;;;;;;;;;;14.00;74.40;;;;;;5033713;28;89272;-41
2023/05/16 07:23:51;;;;;;;;;;;14.10;74.50;;;;;;5036400;28;87058;-41
2023/05/16 07:26:17;;;;;;;;;;;14.00;74.50;;;;;;5032623;28;88051;-42
2023/05/16 07:28:43;;;;;;;;;;;14.10;74.40;;;;;;5036537;28;88120;-41
2023/05/16 07:31:08;;;;;;;;;;;14.10;74.60;;;;;;5033562;28;87368;-42
2023/05/16 07:33:34;;;;;;;;;;;14.10;74.60;;;;;;5029005;28;87658;-41
2023/05/16 07:36:00;;;;;;;;;;;14.00;74.60;;;;;;5039295;28;87930;-41
2023/05/16 07:38:25;;;;;;;;;;;14.10;74.70;;;;;;5033139;27;89155;-42
2023/05/16 07:40:51;;;;;;;;;;;14.10;74.80;;;;;;5035710;28;88017;-42
2023/05/16 07:43:17;;;;;;;;;;;14.10;74.70;;;;;;5034132;28;86517;-41
2023/05/16 07:45:42;;;;;;;;;;;14.10;74.80;;;;;;5035424;28;87103;-41
2023/05/16 07:48:08;;;;;;;;;;;14.10;74.90;;;;;;5034165;28;88055;-41
2023/05/16 07:50:34;;;;;;;;;;;14.10;75.10;;;;;;5034376;28;88268;-41
2023/05/16 07:52:59;;;;;;;;;;;14.10;75.10;;;;;;5034092;27;88200;-42
2023/05/16 07:55:25;;;;;;;;;;;14.10;75.10;;;;;;5034074;28;88033;-41
2023/05/16 07:57:50;;;;;;;;;;;14.10;75.10;;;;;;5037495;28;87125;-41
2023/05/16 08:00:16;;;;;;;;;;;14.10;75.30;;;;;;5033620;28;88144;-41
2023/05/16 08:02:42;;;;;;;;;;;14.10;75.30;;;;;;5035373;28;87164;-42
2023/05/16 08:05:08;;;;;;;;;;;14.10;75.40;;;;;;5032510;28;87355;-41
2023/05/16 08:07:33;;;;;;;;;;;14.10;75.20;;;;;;5034644;28;89110;-41
2023/05/16 08:09:59;;;;;;;;;;;14.20;75.30;;;;;;5032270;28;87523;-41
2023/05/16 08:12:26;;;;;;;;;;;14.10;75.30;;;;;;5035387;28;87333;-41
2023/05/16 08:14:51;;;;;;;;;;;14.10;75.30;;;;;;5030564;28;88906;-42
2023/05/16 08:17:17;;;;;;;;;;;14.10;75.40;;;;;;5035095;28;87144;-41
2023/05/16 08:19:42;;;;;;;;;;;14.20;75.90;;;;;;5030306;28;87096;-42
2023/05/16 08:22:08;;;;;;;;;;;14.20;75.30;;;;;;5035282;27;87162;-41
2023/05/16 08:24:34;;;;;;;;;;;14.20;75.50;;;;;;5031559;27;87216;-41
2023/05/16 08:26:59;;;;;;;;;;;14.20;75.90;;;;;;5033944;28;89476;-41
2023/05/16 08:29:25;;;;;;;;;;;14.20;75.20;;;;;;5032001;28;87338;-41
2023/05/16 08:31:51;;;;;;;;;;;14.20;75.30;;;;;;5034718;28;87438;-41
2023/05/16 08:34:16;;;;;;;;;;;14.20;75.10;;;;;;5032495;28;88158;-41
2023/05/16 08:36:42;;;;;;;;;;;14.20;75.30;;;;;;5033490;28;87152;-42
2023/05/16 08:39:10;;;;;;;;;;;14.20;75.20;;;;;;5032437;28;87965;-41
2023/05/16 08:41:36;;;;;;;;;;;14.30;75.10;;;;;;5035427;28;89285;-42
2023/05/16 08:44:01;;;;;;;;;;;14.30;75.30;;;;;;5033035;27;87388;-41
2023/05/16 08:46:27;;;;;;;;;;;14.30;75.10;;;;;;5031822;28;87992;-41
2023/05/16 08:48:53;;;;;;;;;;;14.30;75.10;;;;;;5033389;28;87316;-42
2023/05/16 08:51:19;;;;;;;;;;;14.30;75.10;;;;;;5032446;28;87275;-42
2023/05/16 08:53:51;;;;;;;;;;;14.30;75.00;;;;;;5033415;28;88049;-41
2023/05/16 08:56:17;;;;;;;;;;;14.30;74.80;;;;;;5032933;28;86353;-41
2023/05/16 08:58:44;;;;;;;;;;;14.30;75.30;;;;;;5033030;28;86991;-42
2023/05/16 09:01:09;;;;;;;;;;;14.30;74.80;;;;;;5031649;28;88089;-41
2023/05/16 09:06:16;;;;;;;;;;;14.30;75.00;;;;;;5056189;27;80124;-40
2023/05/16 09:08:41;;;;;;;;;;;14.30;75.00;;;;;;5052767;27;80071;-41
2023/05/16 09:11:07;;;;;;;;;;;14.30;75.00;;;;;;5054596;27;80450;-40
2023/05/16 09:13:33;;;;;;;;;;;14.30;75.00;;;;;;5052826;27;80196;-41
2023/05/16 09:16:08;;;;;;;;;;;14.30;75.00;;;;;;5053381;27;80290;-40
2023/05/16 09:18:35;;;;;;;;;;;14.30;75.10;;;;;;5051971;27;81468;-40
2023/05/16 09:21:00;;;;;;;;;;;14.40;75.00;;;;;;5054598;27;80327;-40
2023/05/16 09:23:26;;;;;;;;;;;14.40;75.00;;;;;;5052550;27;80346;-40
2023/05/16 09:25:52;;;;;;;;;;;14.40;75.30;;;;;;5056783;27;80903;-40
2023/05/16 09:28:17;;;;;;;;;;;14.40;75.10;;;;;;5052652;27;80229;-40
2023/05/16 09:30:45;;;;;;;;;;;14.30;75.20;;;;;;5053147;27;80779;-40
2023/05/16 09:33:10;;;;;;;;;;;14.40;75.30;;;;;;5052191;27;81392;-40
2023/05/16 09:35:36;;;;;;;;;;;14.40;75.10;;;;;;5053496;27;80260;-41
2023/05/16 09:38:02;;;;;;;;;;;14.40;75.30;;;;;;5052902;27;80639;-40
2023/05/16 09:40:27;;;;;;;;;;;14.40;75.40;;;;;;5053099;27;81225;-40
2023/05/16 09:43:03;;;;;;;;;;;14.30;75.30;;;;;;5053708;27;80409;-40
2023/05/16 09:45:29;;;;;;;;;;;14.40;75.30;;;;;;5053703;27;81024;-40
2023/05/16 09:48:00;;;;;;;;;;;14.40;75.30;;;;;;5054970;27;82599;-41
2023/05/16 09:50:25;;;;;;;;;;;14.40;75.50;;;;;;5053820;27;80725;-40
2023/05/16 09:52:51;;;;;;;;;;;14.30;76.10;;;;;;5052440;27;81132;-41
2023/05/16 09:55:16;;;;;;;;;;;14.20;76.60;;;;;;5053349;27;80391;-41
2023/05/16 09:57:42;;;;;;;;;;;14.20;77.10;;;;;;5052484;27;80708;-41
2023/05/16 10:00:10;;;;;;;;;;;14.10;77.20;;;;;;5052175;27;82581;-40
2023/05/16 10:02:36;;;;;;;;;;;14.10;77.00;;;;;;5052221;27;80246;-40
2023/05/16 10:05:02;;;;;;;;;;;14.10;77.20;;;;;;5051490;27;80855;-40
2023/05/16 10:07:29;;;;;;;;;;;14.10;77.60;;;;;;5052758;27;80839;-40
2023/05/16 10:09:54;;;;;;;;;;;14.10;77.90;;;;;;5054776;27;80364;-40
2023/05/16 10:12:24;;;;;;;;;;;14.00;78.00;;;;;;5053159;27;80437;-40
2023/05/16 10:14:50;;;;;;;;;;;14.00;77.90;;;;;;5052195;27;80251;-40
2023/05/16 10:17:16;;;;;;;;;;;14.00;78.10;;;;;;5041953;27;81062;-40
2023/05/16 10:19:41;;;;;;;;;;;14.00;78.20;;;;;;5037945;28;82797;-40
2023/05/16 10:22:09;;;;;;;;;;;14.00;78.10;;;;;;5039558;28;81461;-40
2023/05/16 10:24:57;;;;;;;;;;;14.00;78.30;;;;;;5038373;28;80647;-39
2023/05/16 10:27:23;;;;;;;;;;;14.00;78.00;;;;;;5029626;28;81424;-41
2023/05/16 10:29:49;;;;;;;;;;;14.00;78.20;;;;;;5033346;28;80085;-40
2023/05/16 10:32:15;;;;;;;;;;;14.00;78.20;;;;;;5043094;28;80153;-40
2023/05/16 10:34:41;;;;;;;;;;;14.00;78.20;;;;;;5036803;28;80411;-40
2023/05/16 10:37:07;;;;;;;;;;;14.10;78.00;;;;;;5040119;28;80755;-40
2023/05/16 10:39:32;;;;;;;;;;;14.10;78.80;;;;;;5037496;28;81243;-40
2023/05/16 10:41:58;;;;;;;;;;;14.10;78.30;;;;;;5039447;28;81014;-40
2023/05/16 10:44:24;;;;;;;;;;;14.10;78.20;;;;;;5037685;27;81121;-40
2023/05/16 10:46:50;;;;;;;;;;;14.10;78.40;;;;;;5038957;28;82962;-40
2023/05/16 10:49:18;;;;;;;;;;;14.10;78.40;;;;;;5038641;28;80695;-41
2023/05/16 10:51:44;;;;;;;;;;;14.10;78.50;;;;;;5039258;28;81090;-40
2023/05/16 10:54:11;;;;;;;;;;;14.10;78.50;;;;;;5040939;28;80816;-40
2023/05/16 10:56:37;;;;;;;;;;;14.10;78.60;;;;;;5038917;28;80274;-41
2023/05/16 10:59:03;;;;;;;;;;;14.10;78.70;;;;;;5038244;28;80366;-40
2023/05/16 11:01:31;;;;;;;;;;;14.10;78.70;;;;;;5037984;28;80185;-39
2023/05/16 11:03:57;;;;;;;;;;;14.10;78.80;;;;;;5037506;27;80828;-40
2023/05/16 11:06:24;;;;;;;;;;;14.10;78.70;;;;;;5037938;28;81705;-40
2023/05/16 11:11:45;;;;;;;;;;;14.10;78.70;;;;;;5032739;28;80655;-40
2023/05/16 11:14:30;;;;;;;;;;;14.20;78.70;;;;;;5034478;28;80880;-40
2023/05/16 11:16:59;;;;;;;;;;;14.20;78.60;;;;;;5038908;27;80241;-40
2023/05/16 11:19:34;;;;;;;;;;;14.20;79.20;;;;;;5031846;28;80492;-40
2023/05/16 11:22:03;;;;;;;;;;;14.10;78.70;;;;;;5033703;28;80370;-41
2023/05/16 11:24:30;;;;;;;;;;;14.10;78.80;;;;;;5038390;28;80682;-40
2023/05/16 11:26:58;;;;;;;;;;;14.10;78.80;;;;;;5036917;27;82678;-40
2023/05/16 11:29:23;;;;;;;;;;;14.20;78.80;;;;;;5037738;28;80335;-40
2023/05/16 11:31:49;;;;;;;;;;;14.20;78.80;;;;;;5036693;28;81045;-40
2023/05/16 11:34:14;;;;;;;;;;;14.20;78.80;;;;;;5039220;28;80523;-40
2023/05/16 11:36:41;;;;;;;;;;;14.20;78.80;;;;;;5039032;28;80190;-40
2023/05/16 11:39:08;;;;;;;;;;;14.20;78.90;;;;;;5039039;28;81226;-40
2023/05/16 11:41:33;;;;;;;;;;;14.20;78.90;;;;;;5036234;28;80487;-41
2023/05/16 11:43:59;;;;;;;;;;;14.20;78.90;;;;;;5039104;28;81978;-40
2023/05/16 11:46:26;;;;;;;;;;;14.20;79.00;;;;;;5035428;28;82674;-40
2023/05/16 11:48:52;;;;;;;;;;;14.30;78.80;;;;;;5031941;28;80355;-40
2023/05/16 11:51:19;;;;;;;;;;;14.30;78.50;;;;;;5038819;28;80805;-40
2023/05/16 11:53:45;;;;;;;;;;;14.30;78.90;;;;;;5035380;28;82834;-39
2023/05/16 11:56:11;;;;;;;;;;;14.30;78.80;;;;;;5038667;28;80350;-40
2023/05/16 11:58:38;;;;;;;;;;;14.30;78.80;;;;;;5038174;28;80220;-40
2023/05/16 12:01:04;;;;;;;;;;;14.30;78.90;;;;;;5039014;28;80325;-40
2023/05/16 12:03:34;;;;;;;;;;;14.30;78.80;;;;;;5036451;27;80747;-40
2023/05/16 12:05:59;;;;;;;;;;;14.30;79.00;;;;;;5038250;28;80390;-40
2023/05/16 12:08:25;;;;;;;;;;;14.40;78.90;;;;;;5035373;28;80334;-40
2023/05/16 12:10:51;;;;;;;;;;;14.40;79.20;;;;;;5038048;28;80442;-41
2023/05/16 12:13:18;;;;;;;;;;;14.40;79.20;;;;;;5035411;28;82581;-40
2023/05/16 12:15:44;;;;;;;;;;;14.40;79.40;;;;;;5037563;28;80445;-41
2023/05/16 12:18:10;;;;;;;;;;;14.40;79.50;;;;;;5036175;27;82031;-40
2023/05/16 12:20:35;;;;;;;;;;;14.40;79.50;;;;;;5040115;28;82956;-40
2023/05/16 12:23:01;;;;;;;;;;;14.40;79.80;;;;;;5036554;28;81460;-40
2023/05/16 12:25:36;;;;;;;;;;;14.40;79.70;;;;;;5036871;28;81525;-41
2023/05/16 12:28:06;;;;;;;;;;;14.40;79.70;;;;;;5035962;28;80304;-40
2023/05/16 12:30:32;;;;;;;;;;;14.40;79.70;;;;;;5038443;28;81297;-40
2023/05/16 12:32:58;;;;;;;;;;;14.40;79.70;;;;;;5035458;28;81442;-40
2023/05/16 12:35:24;;;;;;;;;;;14.40;79.40;;;;;;5038178;28;80184;-40
2023/05/16 12:37:52;;;;;;;;;;;14.50;79.30;;;;;;5036128;28;80473;-41
2023/05/16 12:40:19;;;;;;;;;;;14.50;78.80;;;;;;5037648;28;81219;-40
2023/05/16 12:42:48;;;;;;;;;;;14.50;79.10;;;;;;5038449;28;80304;-40
2023/05/16 12:45:17;;;;;;;;;;;14.40;79.30;;;;;;5037737;28;82432;-40
2023/05/16 12:47:43;;;;;;;;;;;14.50;79.30;;;;;;5034494;28;80396;-40
2023/05/16 12:50:10;;;;;;;;;;;14.50;79.20;;;;;;5038301;28;81226;-40
2023/05/16 12:52:36;;;;;;;;;;;14.60;78.90;;;;;;5034993;28;82771;-40
2023/05/16 12:55:01;;;;;;;;;;;14.50;79.10;;;;;;5037638;28;81516;-40
2023/05/16 12:57:27;;;;;;;;;;;14.60;78.60;;;;;;5035377;27;82294;-40
2023/05/16 12:59:53;;;;;;;;;;;14.60;78.80;;;;;;5037043;28;80383;-40
2023/05/16 13:02:18;;;;;;;;;;;14.60;78.70;;;;;;5036197;28;80830;-39
2023/05/16 13:04:43;;;;;;;;;;;14.60;78.90;;;;;;5038356;28;80638;-40
2023/05/16 13:07:10;;;;;;;;;;;14.60;79.00;;;;;;5036437;28;80486;-40
2023/05/16 13:09:36;;;;;;;;;;;14.60;78.90;;;;;;5036081;28;82109;-40
2023/05/16 13:12:02;;;;;;;;;;;14.60;78.90;;;;;;5035250;28;84010;-41
2023/05/16 13:14:28;;;;;;;;;;;14.70;79.30;;;;;;5035223;28;81346;-40
2023/05/16 13:16:54;;;;;;;;;;;14.60;78.90;;;;;;5035968;28;82595;-40
2023/05/16 13:19:21;;;;;;;;;;;14.70;79.00;;;;;;5034091;28;81988;-41
2023/05/16 13:21:47;;;;;;;;;;;14.80;78.50;;;;;;5035180;28;83038;-40
2023/05/16 13:24:12;;;;;;;;;;;14.80;78.20;;;;;;5036070;28;84439;-40
2023/05/16 13:26:38;;;;;;;;;;;14.80;78.50;;;;;;5036116;28;82024;-40
2023/05/16 13:29:04;;;;;;;;;;;14.80;78.70;;;;;;5033031;28;82625;-39
2023/05/16 13:31:29;;;;;;;;;;;14.80;78.70;;;;;;5036280;28;83587;-40
2023/05/16 13:33:55;;;;;;;;;;;14.80;78.80;;;;;;5032696;28;81953;-40
2023/05/16 13:36:20;;;;;;;;;;;14.80;78.70;;;;;;5036012;28;83788;-40
2023/05/16 13:38:46;;;;;;;;;;;14.90;78.40;;;;;;5033935;28;82428;-40
2023/05/16 13:41:12;;;;;;;;;;;14.90;78.40;;;;;;5036100;28;82582;-40
2023/05/16 13:43:38;;;;;;;;;;;14.90;78.20;;;;;;5033397;28;83824;-40
2023/05/16 13:46:04;;;;;;;;;;;14.90;78.30;;;;;;5036037;28;87074;-40
2023/05/16 13:48:29;;;;;;;;;;;15.00;78.30;;;;;;5034449;27;83344;-41
2023/05/16 13:50:55;;;;;;;;;;;15.00;78.00;;;;;;5035113;27;83125;-41
2023/05/16 13:53:20;;;;;;;;;;;15.00;78.00;;;;;;5038431;28;82640;-41
2023/05/16 13:55:46;;;;;;;;;;;15.00;78.40;;;;;;5037905;28;82459;-41
2023/05/16 13:58:11;;;;;;;;;;;14.90;78.40;;;;;;5038606;28;82966;-40
2023/05/16 14:00:36;;;;;;;;;;;14.80;78.80;;;;;;5037463;28;82319;-40
2023/05/16 14:03:02;;;;;;;;;;;14.80;78.80;;;;;;5039744;28;82749;-40
2023/05/16 14:05:28;;;;;;;;;;;14.80;78.90;;;;;;5035918;28;83154;-40
2023/05/16 14:07:53;;;;;;;;;;;14.90;78.70;;;;;;5041598;28;82091;-40
2023/05/16 14:10:19;;;;;;;;;;;14.80;79.00;;;;;;5034964;28;84697;-39
2023/05/16 14:12:44;;;;;;;;;;;14.80;78.80;;;;;;5039576;28;82063;-42
2023/05/16 14:15:10;;;;;;;;;;;14.90;79.00;;;;;;5035985;28;83751;-40